Time;durP1;ratioP1;P1;durP2;ratioP2;P2;SDS_P1;SDS_P2;PMS_P1;PMS_P2;Temp;Humidity;BMP_temperature;BMP_pressure;BME280_temperature;BME280_humidity;BME280_pressure;Samples;Min_cycle;Max_cycle;Signal;HPM_P1;HPM_P2
2021/01/26 00:01:14;;;;;;;7.40;3.20;;;;;;;;;;4897549;29;20053;-25
2021/01/26 00:03:39;;;;;;;6.82;4.32;;;;;;;;;;4881104;29;20055;-24
2021/01/26 00:06:05;;;;;;;7.03;3.85;;;;;;;;;;4897831;29;20040;-24
2021/01/26 00:08:30;;;;;;;9.82;4.13;;;;;;;;;;4896119;29;20436;-24
2021/01/26 00:10:56;;;;;;;7.15;4.32;;;;;;;;;;4897416;29;20047;-24
2021/01/26 00:13:22;;;;;;;7.82;4.30;;;;;;;;;;4897243;29;20143;-24
2021/01/26 00:15:48;;;;;;;7.18;4.13;;;;;;;;;;4897087;29;20032;-25
2021/01/26 00:18:13;;;;;;;8.07;4.50;;;;;;;;;;4897486;29;20060;-24
2021/01/26 00:20:39;;;;;;;7.32;4.50;;;;;;;;;;4897191;29;20131;-23
2021/01/26 00:23:04;;;;;;;5.10;3.67;;;;;;;;;;4897077;29;20025;-24
2021/01/26 00:25:32;;;;;;;6.43;3.85;;;;;;;;;;4897434;29;20531;-24
2021/01/26 00:27:58;;;;;;;5.43;3.53;;;;;;;;;;4897089;29;20408;-24
2021/01/26 00:30:25;;;;;;;6.53;3.92;;;;;;;;;;4896945;29;20047;-24
2021/01/26 00:32:50;;;;;;;7.07;3.75;;;;;;;;;;4896971;29;20040;-25
2021/01/26 00:35:16;;;;;;;7.05;3.40;;;;;;;;;;4895891;29;20044;-25
2021/01/26 00:37:42;;;;;;;9.10;4.38;;;;;;;;;;4897255;29;20037;-25
2021/01/26 00:40:08;;;;;;;7.53;4.10;;;;;;;;;;4880019;29;20063;-24
2021/01/26 00:42:33;;;;;;;8.15;3.85;;;;;;;;;;4897009;29;20029;-24
2021/01/26 00:44:58;;;;;;;8.35;3.75;;;;;;;;;;4897081;29;20040;-24
2021/01/26 00:47:24;;;;;;;6.72;3.63;;;;;;;;;;4895794;29;20075;-25
2021/01/26 00:49:49;;;;;;;8.25;4.47;;;;;;;;;;4880004;29;20033;-29
2021/01/26 00:52:15;;;;;;;5.68;3.70;;;;;;;;;;4896897;29;20594;-24
2021/01/26 00:54:40;;;;;;;6.25;3.83;;;;;;;;;;4899338;29;20040;-24
2021/01/26 00:57:06;;;;;;;6.00;3.60;;;;;;;;;;4883723;29;20407;-25
2021/01/26 00:59:32;;;;;;;7.60;3.70;;;;;;;;;;4900498;29;20427;-24
2021/01/26 01:01:58;;;;;;;5.85;3.72;;;;;;;;;;4868235;29;20076;-28
2021/01/26 01:04:23;;;;;;;6.28;3.92;;;;;;;;;;4900736;29;20036;-24
2021/01/26 01:06:49;;;;;;;15.13;7.70;;;;;;;;;;4900467;29;20028;-25
2021/01/26 01:09:14;;;;;;;4.82;3.20;;;;;;;;;;4900446;29;20027;-24
2021/01/26 01:11:40;;;;;;;5.45;3.78;;;;;;;;;;4883521;29;20029;-24
2021/01/26 01:14:05;;;;;;;7.32;3.95;;;;;;;;;;4900239;29;20037;-25
2021/01/26 01:16:31;;;;;;;5.80;4.25;;;;;;;;;;4883449;29;20488;-25
2021/01/26 01:18:56;;;;;;;7.15;4.00;;;;;;;;;;4900249;29;20500;-25
2021/01/26 01:21:21;;;;;;;8.95;4.07;;;;;;;;;;4900057;29;20057;-24
2021/01/26 01:23:47;;;;;;;5.90;4.22;;;;;;;;;;4898826;29;20116;-24
2021/01/26 01:26:12;;;;;;;6.55;4.03;;;;;;;;;;4883241;29;20464;-33
2021/01/26 01:28:37;;;;;;;7.55;4.30;;;;;;;;;;4900089;29;20060;-25
2021/01/26 01:31:03;;;;;;;4.85;3.75;;;;;;;;;;4899763;29;20456;-25
2021/01/26 01:33:28;;;;;;;7.63;3.80;;;;;;;;;;4899949;29;20417;-24
2021/01/26 01:35:53;;;;;;;6.05;3.80;;;;;;;;;;4898600;29;20040;-24
2021/01/26 01:38:19;;;;;;;7.05;3.67;;;;;;;;;;4898714;29;20025;-24
2021/01/26 01:40:44;;;;;;;6.90;4.07;;;;;;;;;;4882858;29;20041;-25
2021/01/26 01:43:10;;;;;;;5.93;3.50;;;;;;;;;;4899798;29;20037;-25
2021/01/26 01:45:35;;;;;;;6.85;4.13;;;;;;;;;;4898494;29;20131;-25
2021/01/26 01:48:03;;;;;;;7.13;4.53;;;;;;;;;;4898504;29;20042;-24
2021/01/26 01:50:31;;;;;;;5.95;3.85;;;;;;;;;;4898452;29;20091;-24
2021/01/26 01:53:06;;;;;;;4.47;3.47;;;;;;;;;;4899529;29;20020;-23
2021/01/26 01:55:33;;;;;;;6.28;4.32;;;;;;;;;;4899691;29;20044;-25
2021/01/26 01:58:01;;;;;;;7.03;4.40;;;;;;;;;;4899556;29;20047;-25
2021/01/26 02:00:27;;;;;;;5.75;3.67;;;;;;;;;;4882724;29;20136;-24
2021/01/26 02:02:56;;;;;;;6.65;4.53;;;;;;;;;;4882451;29;20128;-25
2021/01/26 02:05:22;;;;;;;5.88;3.97;;;;;;;;;;4898504;29;20088;-25
2021/01/26 02:07:48;;;;;;;5.47;3.40;;;;;;;;;;4882619;29;20033;-24
2021/01/26 02:10:14;;;;;;;8.18;3.78;;;;;;;;;;4882392;29;20042;-25
2021/01/26 02:12:40;;;;;;;5.38;4.07;;;;;;;;;;4899322;29;20115;-25
2021/01/26 02:15:06;;;;;;;6.72;3.65;;;;;;;;;;4899233;29;20470;-24
2021/01/26 02:17:50;;;;;;;7.03;3.65;;;;;;;;;;4899218;29;20036;-25
2021/01/26 02:20:15;;;;;;;6.28;3.63;;;;;;;;;;4899067;29;20481;-25
2021/01/26 02:22:59;;;;;;;5.10;3.58;;;;;;;;;;4899185;29;20033;-25
2021/01/26 02:25:43;;;;;;;5.53;3.58;;;;;;;;;;4882195;29;20059;-26
2021/01/26 02:28:27;;;;;;;6.53;3.35;;;;;;;;;;4899063;29;20121;-25
2021/01/26 02:30:52;;;;;;;5.30;3.53;;;;;;;;;;4881826;29;20048;-25
2021/01/26 02:33:30;;;;;;;5.85;3.88;;;;;;;;;;4899087;29;20107;-25
2021/01/26 02:36:21;;;;;;;6.35;4.07;;;;;;;;;;4898865;29;20040;-25
2021/01/26 02:38:47;;;;;;;6.57;4.22;;;;;;;;;;4898796;29;20039;-26
2021/01/26 02:41:28;;;;;;;5.18;3.90;;;;;;;;;;4898576;29;20036;-26
2021/01/26 02:44:09;;;;;;;8.68;4.00;;;;;;;;;;4898684;29;20127;-26
2021/01/26 02:46:41;;;;;;;6.50;4.05;;;;;;;;;;4866338;29;20036;-26
2021/01/26 02:49:16;;;;;;;5.20;3.67;;;;;;;;;;4881718;29;20028;-26
2021/01/26 02:51:47;;;;;;;5.30;3.38;;;;;;;;;;4898532;29;20036;-26
2021/01/26 02:54:12;;;;;;;6.20;3.90;;;;;;;;;;4898638;29;20086;-26
2021/01/26 02:56:41;;;;;;;6.93;3.42;;;;;;;;;;4898589;29;20121;-25
2021/01/26 02:59:18;;;;;;;6.97;4.10;;;;;;;;;;4898427;29;20034;-26
2021/01/26 03:01:47;;;;;;;7.50;3.85;;;;;;;;;;4898332;29;20037;-27
2021/01/26 03:04:16;;;;;;;6.00;4.15;;;;;;;;;;4898336;29;20032;-26
2021/01/26 03:06:43;;;;;;;8.98;4.25;;;;;;;;;;4898314;29;20547;-26
2021/01/26 03:09:12;;;;;;;6.35;4.50;;;;;;;;;;4881506;29;20028;-25
2021/01/26 03:11:57;;;;;;;8.38;4.40;;;;;;;;;;4898196;29;20503;-26
2021/01/26 03:14:29;;;;;;;6.40;3.80;;;;;;;;;;4881612;29;20032;-25
2021/01/26 03:16:59;;;;;;;5.55;3.38;;;;;;;;;;4898189;29;20510;-25
2021/01/26 03:19:26;;;;;;;6.82;3.97;;;;;;;;;;4898325;29;20098;-26
2021/01/26 03:21:54;;;;;;;6.63;4.60;;;;;;;;;;4898007;29;20111;-25
2021/01/26 03:24:20;;;;;;;6.65;3.80;;;;;;;;;;4898408;29;20025;-25
2021/01/26 03:26:45;;;;;;;7.97;5.50;;;;;;;;;;4897960;29;20112;-25
2021/01/26 03:29:12;;;;;;;8.88;5.10;;;;;;;;;;4896540;29;20448;-25
2021/01/26 03:31:50;;;;;;;7.05;4.13;;;;;;;;;;4880740;29;20081;-27
2021/01/26 03:34:16;;;;;;;9.25;4.05;;;;;;;;;;4898117;29;20388;-25
2021/01/26 03:36:42;;;;;;;8.02;3.80;;;;;;;;;;4897722;29;20036;-25
2021/01/26 03:39:07;;;;;;;7.22;4.30;;;;;;;;;;4897724;29;20036;-25
2021/01/26 03:41:33;;;;;;;6.28;3.40;;;;;;;;;;4897604;29;20052;-25
2021/01/26 03:43:58;;;;;;;5.57;3.95;;;;;;;;;;4880772;29;20044;-25
2021/01/26 03:46:30;;;;;;;8.20;4.07;;;;;;;;;;4896402;29;20440;-24
2021/01/26 03:48:58;;;;;;;6.63;4.25;;;;;;;;;;4897570;29;20059;-25
2021/01/26 03:51:23;;;;;;;5.43;4.30;;;;;;;;;;4880633;29;20069;-25
2021/01/26 03:53:58;;;;;;;5.32;3.45;;;;;;;;;;4880729;29;20028;-25
2021/01/26 03:56:42;;;;;;;7.80;4.00;;;;;;;;;;4897712;29;20076;-25
2021/01/26 03:59:07;;;;;;;6.07;3.42;;;;;;;;;;4880656;29;20047;-25
2021/01/26 04:01:40;;;;;;;6.45;3.40;;;;;;;;;;4880512;29;20131;-24
2021/01/26 04:04:18;;;;;;;6.22;4.15;;;;;;;;;;4897455;29;20037;-24
2021/01/26 04:06:45;;;;;;;4.82;3.58;;;;;;;;;;4865142;29;20455;-25
2021/01/26 04:09:12;;;;;;;7.13;3.22;;;;;;;;;;4897297;29;20167;-25
2021/01/26 04:11:41;;;;;;;3.50;2.72;;;;;;;;;;4880333;29;20507;-25
2021/01/26 04:14:12;;;;;;;7.82;4.40;;;;;;;;;;4880497;29;20428;-25
2021/01/26 04:16:48;;;;;;;6.30;4.68;;;;;;;;;;4897243;29;20063;-25
2021/01/26 04:19:15;;;;;;;5.55;4.03;;;;;;;;;;4880192;29;20033;-25
2021/01/26 04:21:40;;;;;;;8.23;3.83;;;;;;;;;;4897144;29;20064;-25
2021/01/26 04:24:06;;;;;;;5.32;3.47;;;;;;;;;;4897417;29;20056;-24
2021/01/26 04:26:33;;;;;;;9.23;4.18;;;;;;;;;;4897086;29;20047;-25
2021/01/26 04:28:58;;;;;;;6.93;4.55;;;;;;;;;;4902449;29;20079;-24
2021/01/26 04:31:24;;;;;;;11.23;3.75;;;;;;;;;;4886278;29;20629;-25
2021/01/26 04:33:49;;;;;;;7.65;4.47;;;;;;;;;;4903655;29;20073;-26
2021/01/26 04:36:16;;;;;;;7.38;4.00;;;;;;;;;;4903675;29;20455;-25
2021/01/26 04:38:42;;;;;;;7.20;3.65;;;;;;;;;;4903334;29;20361;-25
2021/01/26 04:41:16;;;;;;;6.85;4.35;;;;;;;;;;4903095;29;20059;-25
2021/01/26 04:44:02;;;;;;;6.18;4.07;;;;;;;;;;4903513;29;20039;-25
2021/01/26 04:46:27;;;;;;;5.45;3.75;;;;;;;;;;4896183;29;20045;-25
2021/01/26 04:48:52;;;;;;;4.88;3.45;;;;;;;;;;4886326;29;20135;-25
2021/01/26 04:51:18;;;;;;;5.72;3.58;;;;;;;;;;4870815;29;20033;-24
2021/01/26 04:54:02;;;;;;;7.00;3.70;;;;;;;;;;4903446;29;20376;-25
2021/01/26 04:56:36;;;;;;;5.47;3.72;;;;;;;;;;4903234;29;20040;-25
2021/01/26 04:59:21;;;;;;;7.00;4.00;;;;;;;;;;4886336;29;20083;-25
2021/01/26 05:01:46;;;;;;;5.22;3.42;;;;;;;;;;4903339;29;20040;-25
2021/01/26 05:04:29;;;;;;;7.22;3.80;;;;;;;;;;4903056;29;20039;-25
2021/01/26 05:07:06;;;;;;;6.30;3.85;;;;;;;;;;4903296;29;20032;-25
2021/01/26 05:09:36;;;;;;;6.10;3.75;;;;;;;;;;4903109;29;20055;-25
2021/01/26 05:12:03;;;;;;;5.82;3.78;;;;;;;;;;4902909;29;20044;-25
2021/01/26 05:14:33;;;;;;;6.75;4.32;;;;;;;;;;4886257;29;20551;-25
2021/01/26 05:16:58;;;;;;;5.38;3.13;;;;;;;;;;4902800;29;20040;-24
2021/01/26 05:19:27;;;;;;;9.23;4.38;;;;;;;;;;4901611;29;20029;-25
2021/01/26 05:21:52;;;;;;;14.20;7.78;;;;;;;;;;4902794;29;20047;-25
2021/01/26 05:24:20;;;;;;;6.70;3.75;;;;;;;;;;4903010;29;20029;-24
2021/01/26 05:26:46;;;;;;;4.70;3.38;;;;;;;;;;4886285;29;20491;-25
2021/01/26 05:29:13;;;;;;;7.38;3.58;;;;;;;;;;4901621;29;20028;-25
2021/01/26 05:31:40;;;;;;;5.22;3.72;;;;;;;;;;4882644;29;20065;-26
2021/01/26 05:34:08;;;;;;;6.25;3.70;;;;;;;;;;4884346;29;20029;-26
2021/01/26 05:36:33;;;;;;;5.32;3.70;;;;;;;;;;4884104;29;20380;-25
2021/01/26 05:38:59;;;;;;;7.03;4.32;;;;;;;;;;4883450;29;20037;-25
2021/01/26 05:41:25;;;;;;;6.72;4.25;;;;;;;;;;4864376;29;20037;-25
2021/01/26 05:43:52;;;;;;;6.22;3.92;;;;;;;;;;4881356;29;20435;-25
2021/01/26 05:46:43;;;;;;;5.43;3.72;;;;;;;;;;4879979;29;20037;-26
2021/01/26 05:49:09;;;;;;;5.97;4.13;;;;;;;;;;4880755;29;20049;-25
2021/01/26 05:51:36;;;;;;;7.68;3.90;;;;;;;;;;4879643;29;20039;-25
2021/01/26 05:54:04;;;;;;;6.50;4.00;;;;;;;;;;4864208;29;20053;-25
2021/01/26 05:56:29;;;;;;;5.22;3.88;;;;;;;;;;4881018;29;20437;-25
2021/01/26 05:58:55;;;;;;;6.63;4.00;;;;;;;;;;4894860;29;20029;-25
2021/01/26 06:01:26;;;;;;;9.73;4.07;;;;;;;;;;4881048;29;20049;-25
2021/01/26 06:04:06;;;;;;;16.20;6.18;;;;;;;;;;4880557;29;20504;-25
2021/01/26 06:06:31;;;;;;;7.05;4.53;;;;;;;;;;4895099;29;20033;-25
2021/01/26 06:08:57;;;;;;;4.72;3.63;;;;;;;;;;4880963;29;20504;-24
2021/01/26 06:11:24;;;;;;;5.53;3.35;;;;;;;;;;4880635;29;20040;-25
2021/01/26 06:13:50;;;;;;;5.05;3.72;;;;;;;;;;4880714;29;20032;-25
2021/01/26 06:16:20;;;;;;;5.07;3.78;;;;;;;;;;4880532;29;20029;-25
2021/01/26 06:19:04;;;;;;;5.97;3.55;;;;;;;;;;4880572;29;20052;-27
2021/01/26 06:21:30;;;;;;;6.07;3.42;;;;;;;;;;4880457;29;20104;-25
2021/01/26 06:23:57;;;;;;;6.10;3.67;;;;;;;;;;4894463;29;20033;-25
2021/01/26 06:26:25;;;;;;;5.90;3.53;;;;;;;;;;4541366;29;9999901;-25
2021/01/26 06:29:05;;;;;;;5.82;4.03;;;;;;;;;;4859811;29;20077;-25
2021/01/26 06:31:42;;;;;;;6.80;4.63;;;;;;;;;;4885984;29;20420;-26
2021/01/26 06:34:08;;;;;;;6.43;3.90;;;;;;;;;;4895063;29;20033;-26
2021/01/26 06:36:49;;;;;;;6.05;4.22;;;;;;;;;;4878756;29;20042;-26
2021/01/26 06:39:34;;;;;;;5.43;3.58;;;;;;;;;;4877774;29;20056;-26
2021/01/26 06:42:17;;;;;;;4.68;3.00;;;;;;;;;;4895646;29;20050;-26
2021/01/26 06:44:49;;;;;;;6.38;3.25;;;;;;;;;;4895526;29;20100;-25
2021/01/26 06:47:27;;;;;;;4.93;4.13;;;;;;;;;;4895398;29;20037;-26
2021/01/26 06:49:52;;;;;;;5.32;3.13;;;;;;;;;;4893871;29;20032;-25
2021/01/26 06:52:32;;;;;;;5.25;3.40;;;;;;;;;;4894538;29;20052;-24
2021/01/26 06:55:17;;;;;;;13.07;6.05;;;;;;;;;;4894788;29;20036;-26
2021/01/26 06:57:58;;;;;;;6.50;3.75;;;;;;;;;;4895250;29;20161;-24
2021/01/26 07:00:29;;;;;;;5.80;3.67;;;;;;;;;;4878124;29;20048;-24
2021/01/26 07:03:13;;;;;;;6.20;3.22;;;;;;;;;;4894212;29;20051;-24
2021/01/26 07:05:39;;;;;;;4.70;3.10;;;;;;;;;;4895319;29;20063;-24
2021/01/26 07:08:17;;;;;;;5.70;3.53;;;;;;;;;;4895180;29;20064;-24
2021/01/26 07:10:55;;;;;;;4.50;3.08;;;;;;;;;;4895323;29;20084;-23
2021/01/26 07:13:30;;;;;;;4.45;3.20;;;;;;;;;;4878347;29;20132;-24
2021/01/26 07:16:02;;;;;;;4.88;3.38;;;;;;;;;;4862378;29;20033;-24
2021/01/26 07:18:47;;;;;;;5.00;3.28;;;;;;;;;;4894963;29;20032;-23
2021/01/26 07:21:27;;;;;;;3.75;2.90;;;;;;;;;;4894254;29;20040;-25
2021/01/26 07:24:02;;;;;;;5.78;3.40;;;;;;;;;;4894909;29;20032;-26
2021/01/26 07:26:30;;;;;;;4.30;3.08;;;;;;;;;;4894108;29;20084;-25
2021/01/26 07:29:05;;;;;;;7.18;3.58;;;;;;;;;;4894154;29;20032;-24
2021/01/26 07:31:39;;;;;;;5.65;3.20;;;;;;;;;;4894478;29;20049;-24
2021/01/26 07:34:08;;;;;;;6.55;3.47;;;;;;;;;;4894674;29;20083;-24
2021/01/26 07:36:44;;;;;;;4.85;3.05;;;;;;;;;;4893121;29;20039;-25
2021/01/26 07:39:27;;;;;;;6.45;3.65;;;;;;;;;;4877389;29;20034;-24
2021/01/26 07:42:01;;;;;;;6.47;3.63;;;;;;;;;;4894190;29;20048;-24
2021/01/26 07:44:37;;;;;;;5.10;3.35;;;;;;;;;;4894310;29;20040;-24
2021/01/26 07:47:08;;;;;;;5.32;3.22;;;;;;;;;;4894261;29;20440;-23
2021/01/26 07:49:46;;;;;;;7.03;3.85;;;;;;;;;;4894269;29;20621;-24
2021/01/26 07:52:12;;;;;;;5.57;3.80;;;;;;;;;;4876992;29;20484;-24
2021/01/26 07:54:37;;;;;;;4.70;3.15;;;;;;;;;;4894353;29;20108;-24
2021/01/26 07:57:03;;;;;;;5.10;3.30;;;;;;;;;;4877253;29;20060;-24
2021/01/26 07:59:31;;;;;;;5.10;3.15;;;;;;;;;;4894299;29;20028;-24
2021/01/26 08:02:00;;;;;;;6.00;3.45;;;;;;;;;;4893435;29;20609;-23
2021/01/26 08:04:35;;;;;;;4.40;2.83;;;;;;;;;;4894019;29;20035;-24
2021/01/26 08:07:02;;;;;;;5.50;3.10;;;;;;;;;;4894142;29;20865;-23
2021/01/26 08:09:41;;;;;;;6.00;3.17;;;;;;;;;;4877336;29;20040;-23
2021/01/26 08:12:08;;;;;;;4.60;3.20;;;;;;;;;;4893730;29;20499;-24
2021/01/26 08:14:36;;;;;;;4.85;3.13;;;;;;;;;;4893659;29;20118;-24
2021/01/26 08:17:04;;;;;;;5.15;2.85;;;;;;;;;;4893976;29;20128;-24
2021/01/26 08:19:32;;;;;;;4.47;2.83;;;;;;;;;;4893710;29;20570;-24
2021/01/26 08:21:58;;;;;;;4.53;3.25;;;;;;;;;;4893773;29;20088;-24
2021/01/26 08:24:34;;;;;;;5.22;2.80;;;;;;;;;;4893807;29;20037;-24
2021/01/26 08:27:18;;;;;;;5.68;3.42;;;;;;;;;;4892754;29;20028;-24
2021/01/26 08:29:44;;;;;;;4.55;2.85;;;;;;;;;;4893832;29;20036;-24
2021/01/26 08:32:27;;;;;;;4.07;3.08;;;;;;;;;;4893596;29;20060;-23
2021/01/26 08:34:55;;;;;;;4.38;2.88;;;;;;;;;;4876757;29;20045;-24
2021/01/26 08:37:24;;;;;;;5.20;3.33;;;;;;;;;;4893369;29;20268;-23
2021/01/26 08:39:49;;;;;;;4.72;2.97;;;;;;;;;;4893627;29;20192;-24
2021/01/26 08:42:33;;;;;;;6.32;3.50;;;;;;;;;;4893660;29;20492;-24
2021/01/26 08:44:59;;;;;;;3.78;2.75;;;;;;;;;;4876920;29;20044;-24
2021/01/26 08:47:43;;;;;;;5.85;3.63;;;;;;;;;;4861264;29;20032;-24
2021/01/26 08:50:21;;;;;;;4.47;2.75;;;;;;;;;;4893311;29;20503;-24
2021/01/26 08:52:46;;;;;;;7.70;3.83;;;;;;;;;;4861117;29;20033;-23
2021/01/26 08:55:50;;;;;;;5.70;3.75;;;;;;;;;;4893534;29;20123;-24
2021/01/26 08:58:45;;;;;;;6.03;3.22;;;;;;;;;;4853436;29;20048;-24
2021/01/26 09:01:22;;;;;;;4.90;3.08;;;;;;;;;;4845722;29;20060;-24
2021/01/26 09:03:52;;;;;;;4.32;3.10;;;;;;;;;;4866043;29;20742;-24
2021/01/26 09:06:26;;;;;;;3.97;3.13;;;;;;;;;;4893804;29;20797;-24
2021/01/26 09:08:53;;;;;;;4.47;3.30;;;;;;;;;;4893376;29;20036;-23
2021/01/26 09:11:28;;;;;;;5.88;3.28;;;;;;;;;;4893265;29;20072;-23
2021/01/26 09:13:59;;;;;;;4.32;2.92;;;;;;;;;;4894211;29;20032;-24
2021/01/26 09:16:26;;;;;;;4.32;3.53;;;;;;;;;;4896833;29;20036;-26
2021/01/26 09:18:57;;;;;;;3.28;2.97;;;;;;;;;;4880107;29;20123;-25
2021/01/26 09:21:23;;;;;;;4.40;2.75;;;;;;;;;;4896837;29;20050;-24
2021/01/26 09:23:53;;;;;;;3.53;2.47;;;;;;;;;;4896713;29;20028;-26
2021/01/26 09:26:19;;;;;;;4.72;2.80;;;;;;;;;;4896669;29;20423;-24
2021/01/26 09:28:46;;;;;;;3.58;2.58;;;;;;;;;;4896556;29;20024;-25
2021/01/26 09:31:12;;;;;;;5.80;3.00;;;;;;;;;;4896001;29;20052;-24
2021/01/26 09:33:38;;;;;;;4.40;2.85;;;;;;;;;;4879775;29;20043;-24
2021/01/26 09:36:03;;;;;;;3.55;2.38;;;;;;;;;;4879525;29;20111;-25
2021/01/26 09:38:30;;;;;;;6.05;2.75;;;;;;;;;;4896302;29;20035;-25
2021/01/26 09:40:57;;;;;;;3.33;2.28;;;;;;;;;;4896283;29;20123;-23
2021/01/26 09:43:27;;;;;;;4.18;2.42;;;;;;;;;;4879709;29;20032;-25
2021/01/26 09:45:58;;;;;;;3.25;2.53;;;;;;;;;;4896616;29;20033;-25
2021/01/26 09:48:43;;;;;;;3.38;2.08;;;;;;;;;;4896392;29;20718;-24
2021/01/26 09:51:08;;;;;;;3.92;3.08;;;;;;;;;;4896095;29;20733;-24
2021/01/26 09:53:34;;;;;;;4.00;2.30;;;;;;;;;;4896399;29;20044;-24
2021/01/26 09:56:00;;;;;;;3.22;2.45;;;;;;;;;;4896311;29;20033;-24
2021/01/26 09:58:26;;;;;;;3.65;2.17;;;;;;;;;;4896418;29;20040;-25
2021/01/26 10:00:52;;;;;;;4.32;2.63;;;;;;;;;;4879265;29;20053;-25
2021/01/26 10:03:19;;;;;;;6.20;3.60;;;;;;;;;;4895554;29;20024;-25
2021/01/26 10:05:44;;;;;;;3.75;2.53;;;;;;;;;;4896182;29;20392;-23
2021/01/26 10:08:30;;;;;;;3.65;2.17;;;;;;;;;;4879417;29;20040;-23
2021/01/26 10:10:56;;;;;;;3.42;2.25;;;;;;;;;;4895774;29;20036;-23
2021/01/26 10:13:26;;;;;;;3.00;2.53;;;;;;;;;;4879336;29;20411;-24
2021/01/26 10:15:53;;;;;;;3.70;2.45;;;;;;;;;;4896010;29;20040;-23
2021/01/26 10:18:19;;;;;;;3.95;2.50;;;;;;;;;;4879434;29;20475;-23
2021/01/26 10:20:45;;;;;;;3.75;2.67;;;;;;;;;;4896118;29;20040;-23
2021/01/26 10:23:13;;;;;;;4.18;2.40;;;;;;;;;;4895881;29;20520;-23
2021/01/26 10:25:40;;;;;;;2.20;1.55;;;;;;;;;;4894880;29;20085;-23
2021/01/26 10:28:26;;;;;;;2.30;1.90;;;;;;;;;;4894864;29;20056;-23
2021/01/26 10:30:52;;;;;;;2.78;2.10;;;;;;;;;;4894742;29;20048;-23
2021/01/26 10:33:30;;;;;;;4.63;1.63;;;;;;;;;;4895509;29;20657;-23
2021/01/26 10:35:55;;;;;;;3.33;1.83;;;;;;;;;;4894945;29;20480;-23
2021/01/26 10:38:25;;;;;;;4.05;2.83;;;;;;;;;;4894929;29;20115;-23
2021/01/26 10:41:03;;;;;;;3.08;2.10;;;;;;;;;;4895043;29;20051;-23
2021/01/26 10:43:28;;;;;;;3.20;1.90;;;;;;;;;;4895377;29;20464;-23
2021/01/26 10:45:54;;;;;;;2.38;1.90;;;;;;;;;;4878166;29;20115;-22
2021/01/26 10:48:22;;;;;;;3.47;2.30;;;;;;;;;;4895110;29;20076;-23
2021/01/26 10:50:49;;;;;;;4.80;1.85;;;;;;;;;;4877390;29;20036;-22
2021/01/26 10:53:33;;;;;;;5.18;2.35;;;;;;;;;;4888618;29;20108;-23
2021/01/26 10:55:59;;;;;;;2.75;2.05;;;;;;;;;;4894977;29;20424;-23
2021/01/26 10:58:24;;;;;;;4.03;1.85;;;;;;;;;;4895110;29;20028;-23
2021/01/26 11:00:51;;;;;;;2.88;1.98;;;;;;;;;;4894571;29;20041;-23
2021/01/26 11:03:17;;;;;;;2.83;2.33;;;;;;;;;;4877641;29;20024;-23
2021/01/26 11:05:42;;;;;;;2.10;1.58;;;;;;;;;;4895155;29;20361;-23
2021/01/26 11:08:07;;;;;;;2.10;1.63;;;;;;;;;;4894846;29;20028;-23
2021/01/26 11:10:34;;;;;;;2.80;2.00;;;;;;;;;;4894567;29;20039;-23
2021/01/26 11:12:59;;;;;;;2.90;2.08;;;;;;;;;;4877368;29;20040;-22
2021/01/26 11:15:27;;;;;;;2.05;1.85;;;;;;;;;;4894189;29;20032;-22
2021/01/26 11:17:52;;;;;;;2.13;1.60;;;;;;;;;;4877383;29;20095;-22
2021/01/26 11:20:18;;;;;;;3.28;1.38;;;;;;;;;;4892956;29;20048;-22
2021/01/26 11:22:44;;;;;;;3.92;1.88;;;;;;;;;;4894651;29;20481;-22
2021/01/26 11:25:09;;;;;;;3.13;2.00;;;;;;;;;;4894410;29;20504;-22
2021/01/26 11:27:36;;;;;;;2.47;1.50;;;;;;;;;;4893802;29;20476;-22
2021/01/26 11:30:03;;;;;;;2.90;1.83;;;;;;;;;;4893924;29;20124;-22
2021/01/26 11:32:28;;;;;;;3.17;1.58;;;;;;;;;;4892804;29;20044;-22
2021/01/26 11:34:54;;;;;;;2.72;1.88;;;;;;;;;;4893909;29;20388;-22
2021/01/26 11:37:20;;;;;;;3.63;1.83;;;;;;;;;;4892552;29;20480;-22
2021/01/26 11:39:45;;;;;;;3.80;1.73;;;;;;;;;;4876429;29;20060;-23
2021/01/26 11:42:10;;;;;;;3.30;1.48;;;;;;;;;;4893859;29;20480;-23
2021/01/26 11:44:36;;;;;;;3.25;1.80;;;;;;;;;;4877599;29;20036;-23
2021/01/26 11:47:02;;;;;;;2.50;1.77;;;;;;;;;;4862266;29;20076;-23
2021/01/26 11:49:27;;;;;;;2.15;1.50;;;;;;;;;;4894742;29;20037;-23
2021/01/26 11:51:53;;;;;;;2.15;1.55;;;;;;;;;;4894176;29;20174;-23
2021/01/26 11:54:20;;;;;;;2.75;1.75;;;;;;;;;;4894108;29;20476;-24
2021/01/26 11:56:45;;;;;;;3.78;1.58;;;;;;;;;;4877032;29;20043;-24
2021/01/26 11:59:10;;;;;;;2.90;1.80;;;;;;;;;;4894384;29;20482;-23
2021/01/26 12:01:36;;;;;;;2.00;1.70;;;;;;;;;;4876534;29;20044;-23
2021/01/26 12:04:02;;;;;;;2.65;1.45;;;;;;;;;;4893807;29;20033;-23
2021/01/26 12:06:27;;;;;;;2.35;1.75;;;;;;;;;;4894275;29;20080;-23
2021/01/26 12:08:52;;;;;;;2.97;1.52;;;;;;;;;;4893926;29;20400;-23
2021/01/26 12:11:18;;;;;;;3.13;1.50;;;;;;;;;;4893645;29;20107;-22
2021/01/26 12:13:43;;;;;;;4.07;2.00;;;;;;;;;;4893318;29;20044;-22
2021/01/26 12:16:09;;;;;;;2.55;1.30;;;;;;;;;;4893226;29;20040;-23
2021/01/26 12:18:35;;;;;;;2.33;1.38;;;;;;;;;;4893431;29;20076;-23
2021/01/26 12:21:00;;;;;;;5.38;1.70;;;;;;;;;;4892792;29;20044;-22
2021/01/26 12:23:26;;;;;;;2.33;1.48;;;;;;;;;;4893518;29;20037;-23
2021/01/26 12:25:57;;;;;;;1.55;1.42;;;;;;;;;;4893357;29;20032;-23
2021/01/26 12:28:22;;;;;;;1.90;1.27;;;;;;;;;;4893263;29;20040;-22
2021/01/26 12:30:48;;;;;;;1.92;1.50;;;;;;;;;;4876476;29;20056;-22
2021/01/26 12:33:13;;;;;;;2.22;1.20;;;;;;;;;;4876784;29;20035;-23
2021/01/26 12:35:38;;;;;;;3.17;1.52;;;;;;;;;;4876959;29;20048;-23
2021/01/26 12:38:05;;;;;;;2.88;1.50;;;;;;;;;;4893256;29;20119;-23
2021/01/26 12:40:31;;;;;;;1.80;1.20;;;;;;;;;;4876264;29;20128;-23
2021/01/26 12:42:56;;;;;;;1.70;1.40;;;;;;;;;;4876044;29;20115;-22
2021/01/26 12:45:24;;;;;;;1.73;1.27;;;;;;;;;;4893218;29;20037;-22
2021/01/26 12:47:50;;;;;;;1.75;1.17;;;;;;;;;;4892914;29;20037;-23
2021/01/26 12:50:18;;;;;;;1.42;1.10;;;;;;;;;;4895968;29;20040;-23
2021/01/26 12:52:43;;;;;;;4.45;1.35;;;;;;;;;;4895972;29;20511;-23
2021/01/26 12:55:09;;;;;;;1.17;1.08;;;;;;;;;;4897288;29;20032;-23
2021/01/26 12:57:35;;;;;;;1.92;1.30;;;;;;;;;;4896987;29;20025;-23
2021/01/26 13:00:01;;;;;;;1.67;1.05;;;;;;;;;;4879877;29;20055;-23
2021/01/26 13:02:26;;;;;;;2.38;1.40;;;;;;;;;;4896663;29;20540;-23
2021/01/26 13:04:52;;;;;;;4.43;1.23;;;;;;;;;;4880133;29;20092;-24
2021/01/26 13:07:19;;;;;;;2.65;1.50;;;;;;;;;;4896786;29;20036;-24
2021/01/26 13:09:45;;;;;;;2.13;1.35;;;;;;;;;;4879732;29;20631;-23
2021/01/26 13:12:10;;;;;;;1.88;1.20;;;;;;;;;;4895105;29;20148;-23
2021/01/26 13:14:37;;;;;;;2.17;1.25;;;;;;;;;;4896757;29;20108;-24
2021/01/26 13:17:03;;;;;;;1.88;1.20;;;;;;;;;;4897203;29;20044;-24
2021/01/26 13:19:28;;;;;;;1.63;1.30;;;;;;;;;;4879834;29;20028;-24
2021/01/26 13:21:53;;;;;;;1.55;1.33;;;;;;;;;;4896643;29;20483;-23
2021/01/26 13:24:19;;;;;;;1.55;1.15;;;;;;;;;;4896603;29;20036;-24
2021/01/26 13:26:44;;;;;;;1.38;1.10;;;;;;;;;;4879085;29;20068;-23
2021/01/26 13:29:10;;;;;;;1.98;1.55;;;;;;;;;;4896507;29;20024;-23
2021/01/26 13:31:35;;;;;;;2.58;1.50;;;;;;;;;;4895871;29;20127;-23
2021/01/26 13:34:00;;;;;;;2.35;1.10;;;;;;;;;;4879685;29;20120;-24
2021/01/26 13:36:26;;;;;;;1.90;1.13;;;;;;;;;;4896615;29;20043;-24
2021/01/26 13:38:51;;;;;;;2.33;1.17;;;;;;;;;;4878316;29;20049;-24
2021/01/26 13:41:17;;;;;;;1.23;0.73;;;;;;;;;;4876190;29;20048;-24
2021/01/26 13:43:42;;;;;;;2.33;1.33;;;;;;;;;;4876731;29;20033;-24
2021/01/26 13:46:07;;;;;;;2.15;1.38;;;;;;;;;;4876486;29;20033;-23
2021/01/26 13:48:33;;;;;;;2.30;1.15;;;;;;;;;;4877999;29;20025;-24
2021/01/26 13:50:58;;;;;;;1.40;1.05;;;;;;;;;;4877255;29;20028;-25
2021/01/26 13:53:25;;;;;;;1.50;0.90;;;;;;;;;;4877565;29;20035;-24
2021/01/26 13:55:51;;;;;;;2.55;0.63;;;;;;;;;;4889986;29;20488;-24
2021/01/26 13:58:16;;;;;;;1.08;0.93;;;;;;;;;;4896457;29;20028;-24
2021/01/26 14:00:42;;;;;;;7.05;2.63;;;;;;;;;;4894552;29;20049;-23
2021/01/26 14:03:07;;;;;;;5.13;2.17;;;;;;;;;;4894336;29;20103;-24
2021/01/26 14:05:33;;;;;;;1.98;1.33;;;;;;;;;;4895918;29;20487;-24
2021/01/26 14:07:59;;;;;;;3.38;1.40;;;;;;;;;;4895604;29;20032;-24
2021/01/26 14:10:25;;;;;;;2.00;1.42;;;;;;;;;;4895978;29;20040;-24
2021/01/26 14:12:51;;;;;;;1.85;1.15;;;;;;;;;;4895756;29;20036;-24
2021/01/26 14:15:17;;;;;;;2.50;1.23;;;;;;;;;;4895391;29;20060;-24
2021/01/26 14:17:42;;;;;;;3.20;1.35;;;;;;;;;;4895648;29;20377;-23
2021/01/26 14:20:10;;;;;;;4.43;1.50;;;;;;;;;;4895534;29;20568;-24
2021/01/26 14:22:35;;;;;;;2.15;1.25;;;;;;;;;;4895585;29;20052;-24
2021/01/26 14:25:01;;;;;;;2.42;1.38;;;;;;;;;;4895796;29;20483;-23
2021/01/26 14:27:27;;;;;;;2.83;1.40;;;;;;;;;;4895002;29;20469;-24
2021/01/26 14:29:53;;;;;;;2.65;1.50;;;;;;;;;;4895743;29;20424;-24
2021/01/26 14:32:19;;;;;;;2.92;2.13;;;;;;;;;;4878425;29;20049;-24
2021/01/26 14:34:45;;;;;;;2.65;1.67;;;;;;;;;;4895189;29;20039;-24
2021/01/26 14:37:11;;;;;;;2.22;1.38;;;;;;;;;;4893937;29;20524;-24
2021/01/26 14:39:36;;;;;;;2.53;1.90;;;;;;;;;;4893815;29;20044;-24
2021/01/26 14:42:01;;;;;;;2.40;1.60;;;;;;;;;;4895716;29;20053;-23
2021/01/26 14:44:27;;;;;;;1.77;1.30;;;;;;;;;;4878771;29;20061;-23
2021/01/26 14:46:52;;;;;;;2.88;1.70;;;;;;;;;;4893559;29;20059;-24
2021/01/26 14:49:17;;;;;;;2.80;1.80;;;;;;;;;;4878178;29;20119;-25
2021/01/26 14:51:43;;;;;;;3.40;2.30;;;;;;;;;;4894392;29;20126;-23
2021/01/26 14:54:08;;;;;;;2.25;1.40;;;;;;;;;;4878570;29;20096;-25